Airfield :
LOGIN :

Register | Disclaimer

   EN    FR    IT 

 










Legend :    VFR   Marginal VFR   IFR   Intensive IFR   Very Intensive IFR
Visi :
Ceiling :
>= 8 km
>= 3000ft
5 to 8 km
1000 to 3000 ft
1500m to 5 km
500 to 1000 ft
800 to 1500m
200 to 500 ft
< 800m
< 200 ft
Symbols :   Thunderstorms  Fog  Heavy snow  Heavy precipitations  Wind > 20 kt
SIGMETs :     Misc.  Thunderstorms  Icing  Turbulence  Mountain Waves  Volcanic Ashes







- Airport Elevation : 117 ft
- IATA code : NWI
- Download approach charts


EGSH - Norwich

CURRENT METAR :
  • 241320Z 13010KT 090V180 8000 NSC 19/12 Q1020 NOSIG

EXPIRED METARs :
  • 241250Z 13009KT 090V190 8000 NSC 19/12 Q1021 NOSIG
  • 241220Z 14009KT 100V190 8000 NSC 19/10 Q1021
  • 241150Z 13008KT 090V190 8000 NSC 19/10 Q1021 NOSIG
  • 241120Z 13008KT 090V200 8000 FEW024 19/10 Q1021 NOSIG
  • 241050Z 14009KT 100V190 7000 FEW024 19/11 Q1021 NOSIG

TAF TAF EGSH
Valid from the 24 at 12:00 until the 24 at 21:00 UTC


241103Z 2412/2421 13009KT 7000 NSC
PROB40 2412/2421 CAVOK
ATIS : +44 1603 420 640
No reported NOTAMs for that airfield.



MET'MAP, your aeronautical weather chart ! - Copyright ORBIFLY December 2007 - Disclaimer

ORBIFLY MET'MAP TEAM :

Programming & Development : Alexandra Zaïnal
Concept & Development : Baudouin d'Aumeries
Co-Development & Prog : Marc-Olivier Méhu
Technical & hardware support : Manuel Goepfert

Contact : metmap@orbifly.com




SOURCES & CREDITS :

   NOAA